createdAt,value
2023-02-02T00:02:43.271Z,62.04
2023-02-02T00:05:52.067Z,60.99
2023-02-02T00:08:56.940Z,60.74
2023-02-02T00:12:01.125Z,60.58
2023-02-02T00:15:03.255Z,57.33
2023-02-02T00:18:06.476Z,61.57
2023-02-02T00:21:08.906Z,60.90
2023-02-02T00:24:14.444Z,62.41
2023-02-02T00:27:16.762Z,60.05
2023-02-02T00:30:19.424Z,60.26
2023-02-02T00:33:21.887Z,60.34
2023-02-02T00:36:24.615Z,60.02
2023-02-02T00:39:27.651Z,59.21
2023-02-02T00:42:30.847Z,57.37
2023-02-02T00:45:33.853Z,56.41
2023-02-02T00:48:37.106Z,57.14
2023-02-02T00:51:39.503Z,56.46
2023-02-02T00:54:42.173Z,56.31
2023-02-02T00:57:45.432Z,58.21
2023-02-02T01:00:47.794Z,58.16
2023-02-02T01:03:51.158Z,57.80
2023-02-02T01:06:53.848Z,61.20
2023-02-02T01:09:56.216Z,60.61
2023-02-02T01:12:59.009Z,58.34
2023-02-02T01:16:02.206Z,56.08
2023-02-02T01:19:04.690Z,55.40
2023-02-02T01:22:06.997Z,55.46
2023-02-02T01:25:10.679Z,55.40
2023-02-02T01:28:14.702Z,54.28
2023-02-02T01:31:20.172Z,54.65
2023-02-02T01:34:22.449Z,54.79
2023-02-02T01:37:25.606Z,55.48
2023-02-02T01:40:27.628Z,55.52
2023-02-02T01:43:45.321Z,55.10
2023-02-02T01:46:47.325Z,54.72
2023-02-02T01:49:50.221Z,54.13
2023-02-02T01:52:56.259Z,55.78
2023-02-02T01:55:59.766Z,55.77
2023-02-02T01:59:03.958Z,57.76
2023-02-02T02:02:07.730Z,58.41
2023-02-02T02:05:10.100Z,58.36
2023-02-02T02:08:19.024Z,57.08
2023-02-02T02:11:23.994Z,55.83
2023-02-02T02:14:47.247Z,54.60
2023-02-02T02:17:56.973Z,55.44
2023-02-02T02:21:43.915Z,55.56
2023-02-02T02:25:32.586Z,54.34
2023-02-02T02:29:01.488Z,54.98
2023-02-02T02:32:18.837Z,54.24
2023-02-02T02:35:28.217Z,54.84
2023-02-02T02:38:45.122Z,58.06
2023-02-02T02:41:56.476Z,56.20
2023-02-02T02:45:02.673Z,56.44
2023-02-02T02:48:05.277Z,55.69
2023-02-02T02:51:36.172Z,56.10
2023-02-02T02:54:53.403Z,56.76
2023-02-02T02:58:21.325Z,58.86
2023-02-02T03:01:40.982Z,55.58
2023-02-02T03:05:20.909Z,55.16
2023-02-02T03:08:33.513Z,54.63
2023-02-02T03:11:35.963Z,54.12
2023-02-02T03:14:39.741Z,54.91
2023-02-02T03:17:43.146Z,54.70
2023-02-02T03:20:48.060Z,55.57
2023-02-02T03:23:49.981Z,57.36
2023-02-02T03:26:52.593Z,57.98
2023-02-02T03:29:55.254Z,59.19
2023-02-02T03:32:58.176Z,56.61
2023-02-02T03:36:02.037Z,55.03
2023-02-02T03:39:04.372Z,56.87
2023-02-02T03:42:08.036Z,57.59
2023-02-02T03:45:12.537Z,58.53
2023-02-02T03:48:15.094Z,56.82
2023-02-02T03:51:17.523Z,57.35
2023-02-02T03:54:19.439Z,57.49
2023-02-02T03:57:21.847Z,55.79
2023-02-02T04:00:23.937Z,58.58
2023-02-02T04:03:26.634Z,57.53
2023-02-02T04:06:28.547Z,56.46
2023-02-02T04:09:31.948Z,55.17
2023-02-02T04:12:34.883Z,55.31
2023-02-02T04:15:37.228Z,54.43
2023-02-02T04:18:39.217Z,54.81
2023-02-02T04:21:41.900Z,56.39
2023-02-02T04:24:43.967Z,59.03
2023-02-02T04:27:46.832Z,60.77
2023-02-02T04:30:48.868Z,60.02
2023-02-02T04:33:51.781Z,59.53
2023-02-02T04:36:53.961Z,60.05
2023-02-02T04:39:56.301Z,58.83
2023-02-02T04:42:58.887Z,60.26
2023-02-02T04:46:01.396Z,58.87
2023-02-02T04:49:03.437Z,58.02
2023-02-02T04:52:06.268Z,58.69
2023-02-02T04:55:09.235Z,58.19
2023-02-02T04:58:12.090Z,57.78
2023-02-02T05:01:21.661Z,56.84
2023-02-02T05:04:24.355Z,57.60
2023-02-02T05:07:26.627Z,58.26
2023-02-02T05:10:29.328Z,59.70
2023-02-02T05:13:31.307Z,57.33
2023-02-02T05:16:34.501Z,59.12
2023-02-02T05:19:37.699Z,56.84
2023-02-02T05:22:41.184Z,56.94
2023-02-02T05:25:43.634Z,60.28
2023-02-02T05:28:47.243Z,58.72
2023-02-02T05:31:49.255Z,57.98
2023-02-02T05:34:52.263Z,56.29
2023-02-02T05:37:54.544Z,56.35
2023-02-02T05:40:58.215Z,57.37
2023-02-02T05:44:00.700Z,56.50
2023-02-02T05:47:04.063Z,56.18
2023-02-02T05:50:07.401Z,57.31
2023-02-02T05:53:12.049Z,56.98
2023-02-02T05:56:15.999Z,58.10
2023-02-02T05:59:19.969Z,59.37
2023-02-02T06:02:21.994Z,58.61
2023-02-02T06:05:25.580Z,57.58
2023-02-02T06:08:28.845Z,57.55
2023-02-02T06:11:31.890Z,60.15
2023-02-02T06:14:34.760Z,59.39
2023-02-02T06:17:37.323Z,59.36
2023-02-02T06:20:39.428Z,59.26
2023-02-02T06:23:46.134Z,60.08
2023-02-02T06:26:48.745Z,57.62
2023-02-02T06:29:51.290Z,61.95
2023-02-02T06:32:53.724Z,59.22
2023-02-02T06:36:00.611Z,57.57
2023-02-02T06:39:05.217Z,58.44
2023-02-02T06:42:20.336Z,56.61
2023-02-02T06:45:24.341Z,57.49
2023-02-02T06:48:28.163Z,56.99
2023-02-02T06:51:30.231Z,56.01
2023-02-02T06:54:33.707Z,55.33
2023-02-02T06:57:35.700Z,55.96
2023-02-02T07:00:38.691Z,55.19
2023-02-02T07:03:41.692Z,55.03
2023-02-02T07:06:44.547Z,56.40
2023-02-02T07:09:47.016Z,57.28
2023-02-02T07:13:00.707Z,55.88
2023-02-02T07:16:10.312Z,56.22
2023-02-02T07:19:13.352Z,56.61
2023-02-02T07:22:16.201Z,56.81
2023-02-02T07:25:19.057Z,57.05
2023-02-02T07:28:21.040Z,58.38
2023-02-02T07:31:27.038Z,58.72
2023-02-02T07:34:29.198Z,57.71
2023-02-02T07:37:32.891Z,56.87
2023-02-02T07:40:34.956Z,59.62
2023-02-02T07:43:38.663Z,58.00
2023-02-02T07:46:40.873Z,58.00
2023-02-02T07:49:43.625Z,57.91
2023-02-02T07:52:46.150Z,56.36
2023-02-02T07:55:48.977Z,58.83
2023-02-02T07:58:55.647Z,56.39
2023-02-02T08:01:58.195Z,56.21
2023-02-02T08:05:00.527Z,58.68
2023-02-02T08:08:03.637Z,56.60
2023-02-02T08:11:10.254Z,55.72
2023-02-02T08:14:14.375Z,57.22
2023-02-02T08:17:17.303Z,57.75
2023-02-02T08:20:19.820Z,59.08
2023-02-02T08:23:23.915Z,57.15
2023-02-02T08:26:29.519Z,58.95
2023-02-02T08:29:32.001Z,59.79
2023-02-02T08:32:34.633Z,60.25
2023-02-02T08:35:41.693Z,59.03
2023-02-02T08:38:44.632Z,58.44
2023-02-02T08:41:46.713Z,57.94
2023-02-02T08:46:00.302Z,57.26
2023-02-02T08:48:13.475Z,57.36
2023-02-02T08:51:19.394Z,57.84
2023-02-02T08:54:22.465Z,56.89
2023-02-02T08:57:25.386Z,56.15
2023-02-02T09:00:27.397Z,55.81
2023-02-02T09:03:31.639Z,55.94
2023-02-02T09:06:36.161Z,55.75
2023-02-02T09:09:38.790Z,56.99
2023-02-02T09:12:41.054Z,58.22
2023-02-02T09:15:43.799Z,55.31
2023-02-02T09:18:46.668Z,57.39
2023-02-02T09:21:52.322Z,55.99
2023-02-02T09:24:54.369Z,58.66
2023-02-02T09:27:56.832Z,56.43
2023-02-02T09:31:02.599Z,58.74
2023-02-02T09:34:07.228Z,55.87
2023-02-02T09:37:10.070Z,56.73
2023-02-02T09:40:21.037Z,56.01
2023-02-02T09:43:42.705Z,54.72
2023-02-02T09:47:06.801Z,53.66
2023-02-02T09:50:17.318Z,53.40
2023-02-02T09:53:29.641Z,56.62
2023-02-02T09:56:42.047Z,54.85
2023-02-02T09:59:49.218Z,54.99
2023-02-02T10:02:55.601Z,54.95
2023-02-02T10:06:12.760Z,56.77
2023-02-02T10:09:44.819Z,57.51
2023-02-02T10:13:22.969Z,57.44
2023-02-02T10:16:25.715Z,56.82
2023-02-02T10:19:30.864Z,56.75
2023-02-02T10:22:34.775Z,56.24
2023-02-02T10:25:42.512Z,53.94
2023-02-02T10:28:50.596Z,54.07
2023-02-02T10:32:23.563Z,56.92
2023-02-02T10:35:32.612Z,54.88
2023-02-02T10:38:37.902Z,57.12
2023-02-02T10:41:44.109Z,58.46
2023-02-02T10:45:05.973Z,54.84
2023-02-02T10:48:17.298Z,53.17
2023-02-02T10:51:28.561Z,54.15
2023-02-02T10:54:58.436Z,53.33
2023-02-02T10:58:12.220Z,53.96
2023-02-02T11:01:18.228Z,53.09
2023-02-02T11:04:40.464Z,53.47
2023-02-02T11:07:43.034Z,54.49
2023-02-02T11:10:46.947Z,54.28
2023-02-02T11:13:52.329Z,53.07
2023-02-02T11:17:04.411Z,52.71
2023-02-02T11:20:32.886Z,54.12
2023-02-02T11:23:34.984Z,53.35
2023-02-02T11:27:01.228Z,53.38
2023-02-02T11:30:38.471Z,52.73
2023-02-02T11:33:41.739Z,52.68
2023-02-02T11:36:58.999Z,52.04
2023-02-02T11:40:28.913Z,52.14
2023-02-02T11:43:44.453Z,53.47
2023-02-02T11:46:47.589Z,52.78
2023-02-02T11:49:52.408Z,51.78
2023-02-02T11:52:56.280Z,54.50
2023-02-02T11:56:02.546Z,53.01
2023-02-02T11:59:05.911Z,52.01
2023-02-02T12:02:20.393Z,53.66
2023-02-02T12:05:34.467Z,52.50
2023-02-02T12:08:39.304Z,52.28
2023-02-02T12:12:03.642Z,51.93
2023-02-02T12:15:24.406Z,51.77
2023-02-02T12:18:45.737Z,51.95
2023-02-02T12:21:48.272Z,51.58
2023-02-02T12:25:10.225Z,51.10
2023-02-02T12:28:36.827Z,52.02
2023-02-02T12:31:57.512Z,52.21
2023-02-02T12:35:34.901Z,51.79
2023-02-02T12:39:30.584Z,52.34
2023-02-02T12:43:00.795Z,51.92
2023-02-02T12:46:19.042Z,51.84
2023-02-02T12:49:26.311Z,51.61
2023-02-02T12:52:34.967Z,51.61
2023-02-02T12:55:42.629Z,51.40
2023-02-02T12:59:10.855Z,51.44
2023-02-02T13:02:40.625Z,51.59
2023-02-02T13:05:55.798Z,51.92
2023-02-02T13:09:17.384Z,52.79
2023-02-02T13:12:24.898Z,52.31
2023-02-02T13:15:36.711Z,52.19
2023-02-02T13:18:46.587Z,51.99
2023-02-02T13:21:51.864Z,51.64
2023-02-02T13:25:00.905Z,51.91
2023-02-02T13:28:07.483Z,51.50
2023-02-02T13:31:17.036Z,51.29
2023-02-02T13:34:35.595Z,51.19
2023-02-02T13:37:48.193Z,51.67
2023-02-02T13:40:53.302Z,51.77
2023-02-02T13:44:04.421Z,51.85
2023-02-02T13:47:23.058Z,51.74
2023-02-02T13:50:30.283Z,51.41
2023-02-02T13:53:55.737Z,51.90
2023-02-02T13:57:19.295Z,51.73
2023-02-02T14:00:32.353Z,51.73
2023-02-02T14:03:39.417Z,51.36
2023-02-02T14:10:06.343Z,51.49
2023-02-02T14:13:40.672Z,51.55
2023-02-02T14:16:50.535Z,51.58
2023-02-02T14:19:58.622Z,51.66
2023-02-02T14:23:01.410Z,51.80
2023-02-02T14:26:09.498Z,52.06
2023-02-02T14:29:29.663Z,52.28
2023-02-02T14:32:41.661Z,52.31
2023-02-02T14:35:45.071Z,52.14
2023-02-02T14:39:05.741Z,51.96
2023-02-02T14:43:04.230Z,53.17
2023-02-02T14:46:15.295Z,52.47
2023-02-02T14:49:24.195Z,52.69
2023-02-02T14:52:28.104Z,52.45
2023-02-02T14:55:32.758Z,52.13
2023-02-02T14:58:37.644Z,52.57
2023-02-02T15:01:41.541Z,52.25
2023-02-02T15:04:48.335Z,52.62
2023-02-02T15:07:53.339Z,52.51
2023-02-02T15:10:56.053Z,52.23
2023-02-02T15:14:11.790Z,52.33
2023-02-02T15:17:24.553Z,52.30
2023-02-02T15:20:27.086Z,52.48
2023-02-02T15:23:44.726Z,52.76
2023-02-02T15:26:48.637Z,52.76
2023-02-02T15:29:56.146Z,52.42
2023-02-02T15:33:02.964Z,52.40
2023-02-02T15:36:11.547Z,52.60
2023-02-02T15:39:33.821Z,52.74
2023-02-02T15:42:55.469Z,52.98
2023-02-02T15:46:13.797Z,52.95
2023-02-02T15:49:35.161Z,53.06
2023-02-02T15:52:47.191Z,52.92
2023-02-02T15:55:52.955Z,52.87
2023-02-02T15:58:58.603Z,53.07
2023-02-02T16:02:07.903Z,53.19
2023-02-02T16:05:30.130Z,53.14
2023-02-02T16:08:35.507Z,53.37
2023-02-02T16:11:42.406Z,53.37
2023-02-02T16:14:49.410Z,53.43
2023-02-02T16:18:05.556Z,53.47
2023-02-02T16:21:24.854Z,53.72
2023-02-02T16:24:34.082Z,53.99
2023-02-02T16:27:37.862Z,53.83
2023-02-02T16:30:41.027Z,53.82
2023-02-02T16:33:45.676Z,54.00
2023-02-02T16:37:08.041Z,53.97
2023-02-02T16:40:25.258Z,53.82
2023-02-02T16:43:29.948Z,54.30
2023-02-02T16:46:53.171Z,54.10
2023-02-02T16:50:18.645Z,53.97
2023-02-02T16:53:22.764Z,53.91
2023-02-02T16:56:42.216Z,54.06
2023-02-02T16:59:53.021Z,54.01
2023-02-02T17:03:09.742Z,54.00
2023-02-02T17:06:13.358Z,54.04
2023-02-02T17:09:42.529Z,54.58
2023-02-02T17:12:46.500Z,54.98
2023-02-02T17:15:53.479Z,54.90
2023-02-02T17:18:56.629Z,54.93
2023-02-02T17:22:02.337Z,54.85
2023-02-02T17:25:04.846Z,54.98
2023-02-02T17:28:23.887Z,54.74
2023-02-02T17:31:26.486Z,54.63
2023-02-02T17:34:30.909Z,54.76
2023-02-02T17:37:33.116Z,54.66
2023-02-02T17:40:36.022Z,54.77
2023-02-02T17:43:39.126Z,54.62
2023-02-02T17:46:41.824Z,54.50
2023-02-02T17:49:44.898Z,54.47
2023-02-02T17:52:51.179Z,54.54
2023-02-02T17:55:53.835Z,54.46
2023-02-02T17:58:56.589Z,54.47
2023-02-02T18:01:59.097Z,54.31
2023-02-02T18:05:04.172Z,54.41
2023-02-02T18:08:15.227Z,54.50
2023-02-02T18:11:19.268Z,54.55
2023-02-02T18:14:22.617Z,54.62
2023-02-02T18:17:25.146Z,54.45
2023-02-02T18:20:28.661Z,54.34
2023-02-02T18:23:31.310Z,54.42
2023-02-02T18:26:34.711Z,54.26
2023-02-02T18:29:38.936Z,54.37
2023-02-02T18:32:42.528Z,54.14
2023-02-02T18:35:46.963Z,54.30
2023-02-02T18:38:51.021Z,54.53
2023-02-02T18:41:53.837Z,54.40
2023-02-02T18:44:57.591Z,54.37
2023-02-02T18:48:00.211Z,54.13
2023-02-02T18:51:07.799Z,54.13
2023-02-02T18:54:14.423Z,54.03
2023-02-02T18:57:17.349Z,54.36
2023-02-02T19:00:24.283Z,54.12
2023-02-02T19:03:26.457Z,54.30
2023-02-02T19:06:48.097Z,54.18
2023-02-02T19:09:53.701Z,54.28
2023-02-02T19:13:06.261Z,54.22
2023-02-02T19:16:24.571Z,53.92
2023-02-02T19:19:35.535Z,54.24
2023-02-02T19:22:38.036Z,54.30
2023-02-02T19:25:42.695Z,54.07
2023-02-02T19:29:37.607Z,54.50
2023-02-02T19:33:11.920Z,54.44
2023-02-02T19:36:21.871Z,54.13
2023-02-02T19:39:31.829Z,54.50
2023-02-02T19:42:41.051Z,54.67
2023-02-02T19:46:14.337Z,54.76
2023-02-02T20:03:48.269Z,55.62
2023-02-02T20:06:58.978Z,55.61
2023-02-02T20:10:19.003Z,55.14
2023-02-02T20:13:30.155Z,54.96
2023-02-02T20:16:42.220Z,54.85
2023-02-02T20:19:46.364Z,55.08
2023-02-02T20:22:49.361Z,55.57
2023-02-02T20:25:52.055Z,56.10
2023-02-02T20:28:57.912Z,55.60
2023-02-02T20:31:59.976Z,55.33
2023-02-02T20:35:22.092Z,54.65
2023-02-02T20:38:28.682Z,54.35
2023-02-02T20:41:31.448Z,54.13
2023-02-02T20:44:35.711Z,54.10
2023-02-02T20:47:38.821Z,54.20
2023-02-02T20:50:42.831Z,54.16
2023-02-02T20:53:45.756Z,54.38
2023-02-02T20:56:49.664Z,54.40
2023-02-02T20:59:57.671Z,54.37
2023-02-02T21:03:01.151Z,54.11
2023-02-02T21:06:04.563Z,54.38
2023-02-02T21:09:08.337Z,54.37
2023-02-02T21:12:11.234Z,54.45
2023-02-02T21:15:14.603Z,54.41
2023-02-02T21:18:17.280Z,54.30
2023-02-02T21:21:22.939Z,54.60
2023-02-02T21:24:26.049Z,54.28
2023-02-02T21:27:28.733Z,54.15
2023-02-02T21:30:31.972Z,54.25
2023-02-02T21:33:38.685Z,54.13
2023-02-02T21:36:47.305Z,54.12
2023-02-02T21:39:51.863Z,54.11
2023-02-02T21:43:00.250Z,54.14
2023-02-02T21:46:03.310Z,54.11
2023-02-02T21:49:18.187Z,54.20
2023-02-02T21:52:46.430Z,54.56
2023-02-02T21:56:07.105Z,54.09
2023-02-02T21:59:24.547Z,54.01
2023-02-02T22:02:45.218Z,53.87
2023-02-02T22:05:48.178Z,53.80
2023-02-02T22:08:51.569Z,53.55
2023-02-02T22:12:02.734Z,53.47
2023-02-02T22:15:18.477Z,53.50
2023-02-02T22:18:25.986Z,53.43
2023-02-02T22:21:29.105Z,53.50
2023-02-02T22:24:32.543Z,53.30
2023-02-02T22:27:46.229Z,53.23
2023-02-02T22:30:51.046Z,53.36
2023-02-02T22:33:53.236Z,53.20
2023-02-02T22:36:55.642Z,53.24
2023-02-02T22:40:00.796Z,53.17
2023-02-02T22:43:09.154Z,53.14
2023-02-02T22:46:11.314Z,53.11
2023-02-02T22:49:15.281Z,53.01
2023-02-02T22:52:18.039Z,53.06
2023-02-02T22:55:22.143Z,52.71
2023-02-02T22:58:26.967Z,52.48
2023-02-02T23:01:29.460Z,52.62
2023-02-02T23:04:31.670Z,52.36
2023-02-02T23:07:34.887Z,52.40
2023-02-02T23:10:37.131Z,52.38
2023-02-02T23:13:39.640Z,52.37
2023-02-02T23:16:42.327Z,52.09
2023-02-02T23:19:45.016Z,52.04
2023-02-02T23:22:47.165Z,52.00
2023-02-02T23:25:50.265Z,51.94
2023-02-02T23:28:53.136Z,51.97
2023-02-02T23:31:55.693Z,51.95
2023-02-02T23:34:57.881Z,52.01
2023-02-02T23:38:01.325Z,52.00
2023-02-02T23:41:03.436Z,51.84
2023-02-02T23:44:06.094Z,51.87
2023-02-02T23:47:08.503Z,51.76
2023-02-02T23:50:13.286Z,51.58
2023-02-02T23:53:16.102Z,51.58
2023-02-02T23:56:19.251Z,51.64
2023-02-02T23:59:22.193Z,51.50
